sensor_id;sensor_type;location;lat;lon;timestamp;temperature;humidity
5222;DHT22;2630;52.036;8.514;2023-01-06T00:04:45;10.10;99.90
5222;DHT22;2630;52.036;8.514;2023-01-06T00:07:11;10.10;99.90
5222;DHT22;2630;52.036;8.514;2023-01-06T00:09:36;10.10;99.90
5222;DHT22;2630;52.036;8.514;2023-01-06T00:12:03;10.10;99.90
5222;DHT22;2630;52.036;8.514;2023-01-06T00:16:54;10.10;99.90
5222;DHT22;2630;52.036;8.514;2023-01-06T00:19:20;10.10;99.90
5222;DHT22;2630;52.036;8.514;2023-01-06T00:21:46;10.10;99.90
5222;DHT22;2630;52.036;8.514;2023-01-06T00:24:11;10.20;99.90
5222;DHT22;2630;52.036;8.514;2023-01-06T00:26:37;10.10;99.90
5222;DHT22;2630;52.036;8.514;2023-01-06T00:29:03;10.10;99.90
5222;DHT22;2630;52.036;8.514;2023-01-06T00:31:28;10.20;99.90
5222;DHT22;2630;52.036;8.514;2023-01-06T00:33:55;10.10;99.90
5222;DHT22;2630;52.036;8.514;2023-01-06T00:36:21;10.10;99.90
5222;DHT22;2630;52.036;8.514;2023-01-06T00:38:48;10.10;99.90
5222;DHT22;2630;52.036;8.514;2023-01-06T00:41:14;10.10;99.90
5222;DHT22;2630;52.036;8.514;2023-01-06T00:46:26;10.00;99.90
5222;DHT22;2630;52.036;8.514;2023-01-06T00:48:53;10.00;99.90
5222;DHT22;2630;52.036;8.514;2023-01-06T00:51:19;10.00;99.90
5222;DHT22;2630;52.036;8.514;2023-01-06T01:01:04;10.00;99.90
5222;DHT22;2630;52.036;8.514;2023-01-06T01:03:31;10.00;99.90
5222;DHT22;2630;52.036;8.514;2023-01-06T01:05:58;10.00;99.90
5222;DHT22;2630;52.036;8.514;2023-01-06T01:08:24;10.00;99.90
5222;DHT22;2630;52.036;8.514;2023-01-06T01:13:17;10.00;99.90
5222;DHT22;2630;52.036;8.514;2023-01-06T01:15:43;10.00;99.90
5222;DHT22;2630;52.036;8.514;2023-01-06T01:20:35;10.00;99.90
5222;DHT22;2630;52.036;8.514;2023-01-06T01:23:01;10.10;99.90
5222;DHT22;2630;52.036;8.514;2023-01-06T01:25:26;10.10;99.90
5222;DHT22;2630;52.036;8.514;2023-01-06T01:30:18;10.10;99.90
5222;DHT22;2630;52.036;8.514;2023-01-06T01:32:46;10.00;99.90
5222;DHT22;2630;52.036;8.514;2023-01-06T01:35:12;10.10;99.90
5222;DHT22;2630;52.036;8.514;2023-01-06T01:37:38;10.10;99.90
5222;DHT22;2630;52.036;8.514;2023-01-06T01:40:04;10.00;99.90
5222;DHT22;2630;52.036;8.514;2023-01-06T01:42:30;10.00;99.90
5222;DHT22;2630;52.036;8.514;2023-01-06T01:55:10;10.00;99.90
5222;DHT22;2630;52.036;8.514;2023-01-06T01:57:41;10.00;99.90
5222;DHT22;2630;52.036;8.514;2023-01-06T02:00:08;10.00;99.90
5222;DHT22;2630;52.036;8.514;2023-01-06T02:02:34;10.00;99.90
5222;DHT22;2630;52.036;8.514;2023-01-06T02:05:00;10.00;99.90
5222;DHT22;2630;52.036;8.514;2023-01-06T02:07:27;10.00;99.90
5222;DHT22;2630;52.036;8.514;2023-01-06T02:12:30;10.10;99.90
5222;DHT22;2630;52.036;8.514;2023-01-06T02:14:56;10.10;99.90
5222;DHT22;2630;52.036;8.514;2023-01-06T02:17:41;10.10;99.90
5222;DHT22;2630;52.036;8.514;2023-01-06T02:20:24;10.10;99.90
5222;DHT22;2630;52.036;8.514;2023-01-06T02:23:11;10.10;99.90
5222;DHT22;2630;52.036;8.514;2023-01-06T02:33:54;10.10;99.90
5222;DHT22;2630;52.036;8.514;2023-01-06T02:44:38;10.20;99.90
5222;DHT22;2630;52.036;8.514;2023-01-06T02:47:11;10.10;99.90
5222;DHT22;2630;52.036;8.514;2023-01-06T02:49:52;10.20;99.90
5222;DHT22;2630;52.036;8.514;2023-01-06T02:55:25;10.20;99.90
5222;DHT22;2630;52.036;8.514;2023-01-06T02:58:25;10.20;99.90
5222;DHT22;2630;52.036;8.514;2023-01-06T03:01:02;10.20;99.90
5222;DHT22;2630;52.036;8.514;2023-01-06T03:03:32;10.20;99.90
5222;DHT22;2630;52.036;8.514;2023-01-06T03:06:03;10.20;99.90
5222;DHT22;2630;52.036;8.514;2023-01-06T03:08:31;10.20;99.90
5222;DHT22;2630;52.036;8.514;2023-01-06T03:10:58;10.20;99.90
5222;DHT22;2630;52.036;8.514;2023-01-06T03:13:48;10.10;99.90
5222;DHT22;2630;52.036;8.514;2023-01-06T03:16:17;10.20;99.90
5222;DHT22;2630;52.036;8.514;2023-01-06T03:18:44;10.20;99.90
5222;DHT22;2630;52.036;8.514;2023-01-06T03:21:15;10.20;99.90
5222;DHT22;2630;52.036;8.514;2023-01-06T03:23:41;10.30;99.90
5222;DHT22;2630;52.036;8.514;2023-01-06T03:26:08;10.20;99.90
5222;DHT22;2630;52.036;8.514;2023-01-06T03:28:34;10.20;99.90
5222;DHT22;2630;52.036;8.514;2023-01-06T03:31:23;10.20;99.90
5222;DHT22;2630;52.036;8.514;2023-01-06T03:39:45;10.10;99.90
5222;DHT22;2630;52.036;8.514;2023-01-06T03:42:43;10.20;99.90
5222;DHT22;2630;52.036;8.514;2023-01-06T03:51:19;10.10;99.90
5222;DHT22;2630;52.036;8.514;2023-01-06T03:54:13;10.10;99.90
5222;DHT22;2630;52.036;8.514;2023-01-06T03:56:45;10.10;99.90
5222;DHT22;2630;52.036;8.514;2023-01-06T03:59:17;10.10;99.90
5222;DHT22;2630;52.036;8.514;2023-01-06T04:01:44;10.10;99.90
5222;DHT22;2630;52.036;8.514;2023-01-06T04:04:10;10.10;99.90
5222;DHT22;2630;52.036;8.514;2023-01-06T04:06:36;10.10;99.90
5222;DHT22;2630;52.036;8.514;2023-01-06T04:09:02;10.20;99.90
5222;DHT22;2630;52.036;8.514;2023-01-06T04:11:28;10.30;99.90
5222;DHT22;2630;52.036;8.514;2023-01-06T04:14:11;10.20;99.90
5222;DHT22;2630;52.036;8.514;2023-01-06T04:16:37;10.30;99.90
5222;DHT22;2630;52.036;8.514;2023-01-06T04:19:03;10.20;99.90
5222;DHT22;2630;52.036;8.514;2023-01-06T04:21:28;10.20;99.90
5222;DHT22;2630;52.036;8.514;2023-01-06T04:23:54;10.30;99.90
5222;DHT22;2630;52.036;8.514;2023-01-06T04:26:19;10.30;99.90
5222;DHT22;2630;52.036;8.514;2023-01-06T04:28:45;10.30;99.90
5222;DHT22;2630;52.036;8.514;2023-01-06T04:31:10;10.30;99.90
5222;DHT22;2630;52.036;8.514;2023-01-06T04:33:36;10.30;99.90
5222;DHT22;2630;52.036;8.514;2023-01-06T04:36:02;10.40;99.90
5222;DHT22;2630;52.036;8.514;2023-01-06T04:38:28;10.30;99.90
5222;DHT22;2630;52.036;8.514;2023-01-06T04:40:54;10.40;99.90
5222;DHT22;2630;52.036;8.514;2023-01-06T04:43:20;10.40;99.90
5222;DHT22;2630;52.036;8.514;2023-01-06T04:45:45;10.40;99.90
5222;DHT22;2630;52.036;8.514;2023-01-06T04:48:12;10.30;99.90
5222;DHT22;2630;52.036;8.514;2023-01-06T04:50:37;10.40;99.90
5222;DHT22;2630;52.036;8.514;2023-01-06T04:53:04;10.40;99.90
5222;DHT22;2630;52.036;8.514;2023-01-06T04:55:30;10.40;99.90
5222;DHT22;2630;52.036;8.514;2023-01-06T04:57:55;10.50;99.90
5222;DHT22;2630;52.036;8.514;2023-01-06T05:00:21;10.50;99.90
5222;DHT22;2630;52.036;8.514;2023-01-06T05:02:47;10.50;99.90
5222;DHT22;2630;52.036;8.514;2023-01-06T05:05:13;10.40;99.90
5222;DHT22;2630;52.036;8.514;2023-01-06T05:07:39;10.40;99.90
5222;DHT22;2630;52.036;8.514;2023-01-06T05:10:06;10.50;99.90
5222;DHT22;2630;52.036;8.514;2023-01-06T05:12:33;10.50;99.90
5222;DHT22;2630;52.036;8.514;2023-01-06T05:17:24;10.40;99.90
5222;DHT22;2630;52.036;8.514;2023-01-06T05:19:50;10.40;99.90
5222;DHT22;2630;52.036;8.514;2023-01-06T05:22:16;10.40;99.90
5222;DHT22;2630;52.036;8.514;2023-01-06T05:24:41;10.40;99.90
5222;DHT22;2630;52.036;8.514;2023-01-06T05:27:07;10.40;99.90
5222;DHT22;2630;52.036;8.514;2023-01-06T05:29:33;10.40;99.90
5222;DHT22;2630;52.036;8.514;2023-01-06T05:31:59;10.40;99.90
5222;DHT22;2630;52.036;8.514;2023-01-06T05:34:24;10.40;99.90
5222;DHT22;2630;52.036;8.514;2023-01-06T05:36:50;10.30;99.90
5222;DHT22;2630;52.036;8.514;2023-01-06T05:39:16;10.40;99.90
5222;DHT22;2630;52.036;8.514;2023-01-06T05:41:41;10.30;99.90
5222;DHT22;2630;52.036;8.514;2023-01-06T05:44:07;10.30;99.90
5222;DHT22;2630;52.036;8.514;2023-01-06T05:46:32;10.30;99.90
5222;DHT22;2630;52.036;8.514;2023-01-06T05:48:59;10.40;99.90
5222;DHT22;2630;52.036;8.514;2023-01-06T05:51:25;10.30;99.90
5222;DHT22;2630;52.036;8.514;2023-01-06T05:56:18;10.40;99.90
5222;DHT22;2630;52.036;8.514;2023-01-06T05:58:46;10.40;99.90
5222;DHT22;2630;52.036;8.514;2023-01-06T06:01:31;10.40;99.90
5222;DHT22;2630;52.036;8.514;2023-01-06T06:03:57;10.40;99.90
5222;DHT22;2630;52.036;8.514;2023-01-06T06:06:25;10.30;99.90
5222;DHT22;2630;52.036;8.514;2023-01-06T06:08:50;10.40;99.90
5222;DHT22;2630;52.036;8.514;2023-01-06T06:11:18;10.40;99.90
5222;DHT22;2630;52.036;8.514;2023-01-06T06:13:50;10.40;99.90
5222;DHT22;2630;52.036;8.514;2023-01-06T06:16:18;10.50;99.90
5222;DHT22;2630;52.036;8.514;2023-01-06T06:18:48;10.50;99.90
5222;DHT22;2630;52.036;8.514;2023-01-06T06:21:15;10.40;99.90
5222;DHT22;2630;52.036;8.514;2023-01-06T06:23:42;10.40;99.90
5222;DHT22;2630;52.036;8.514;2023-01-06T06:26:09;10.50;99.90
5222;DHT22;2630;52.036;8.514;2023-01-06T06:28:36;10.50;99.90
5222;DHT22;2630;52.036;8.514;2023-01-06T06:31:04;10.50;99.90
5222;DHT22;2630;52.036;8.514;2023-01-06T06:33:30;10.50;99.90
5222;DHT22;2630;52.036;8.514;2023-01-06T06:35:57;10.50;99.90
5222;DHT22;2630;52.036;8.514;2023-01-06T06:38:23;10.50;99.90
5222;DHT22;2630;52.036;8.514;2023-01-06T06:40:48;10.50;99.90
5222;DHT22;2630;52.036;8.514;2023-01-06T06:45:43;10.50;99.90
5222;DHT22;2630;52.036;8.514;2023-01-06T06:48:08;10.50;99.90
5222;DHT22;2630;52.036;8.514;2023-01-06T06:53:00;10.50;99.90
5222;DHT22;2630;52.036;8.514;2023-01-06T06:55:26;10.50;99.90
5222;DHT22;2630;52.036;8.514;2023-01-06T06:57:51;10.50;99.90
5222;DHT22;2630;52.036;8.514;2023-01-06T07:00:17;10.50;99.90
5222;DHT22;2630;52.036;8.514;2023-01-06T07:02:46;10.60;99.90
5222;DHT22;2630;52.036;8.514;2023-01-06T07:10:04;10.60;99.90
5222;DHT22;2630;52.036;8.514;2023-01-06T07:12:29;10.60;99.90
5222;DHT22;2630;52.036;8.514;2023-01-06T07:14:55;10.50;99.90
5222;DHT22;2630;52.036;8.514;2023-01-06T07:17:26;10.50;99.90
5222;DHT22;2630;52.036;8.514;2023-01-06T07:19:53;10.60;99.90
5222;DHT22;2630;52.036;8.514;2023-01-06T07:22:18;10.50;99.90
5222;DHT22;2630;52.036;8.514;2023-01-06T07:24:44;10.50;99.90
5222;DHT22;2630;52.036;8.514;2023-01-06T07:27:10;10.50;99.90
5222;DHT22;2630;52.036;8.514;2023-01-06T07:33:00;10.60;99.90
5222;DHT22;2630;52.036;8.514;2023-01-06T07:35:26;10.60;99.90
5222;DHT22;2630;52.036;8.514;2023-01-06T07:37:51;10.60;99.90
5222;DHT22;2630;52.036;8.514;2023-01-06T07:40:17;10.60;99.90
5222;DHT22;2630;52.036;8.514;2023-01-06T07:42:43;10.50;99.90
5222;DHT22;2630;52.036;8.514;2023-01-06T07:45:09;10.50;99.90
5222;DHT22;2630;52.036;8.514;2023-01-06T07:47:35;10.50;99.90
5222;DHT22;2630;52.036;8.514;2023-01-06T07:50:01;10.50;99.90
5222;DHT22;2630;52.036;8.514;2023-01-06T07:52:27;10.50;99.90
5222;DHT22;2630;52.036;8.514;2023-01-06T07:54:53;10.50;99.90
5222;DHT22;2630;52.036;8.514;2023-01-06T07:57:18;10.40;99.90
5222;DHT22;2630;52.036;8.514;2023-01-06T07:59:44;10.40;99.90
5222;DHT22;2630;52.036;8.514;2023-01-06T08:02:10;10.40;99.90
5222;DHT22;2630;52.036;8.514;2023-01-06T08:04:36;10.40;99.90
5222;DHT22;2630;52.036;8.514;2023-01-06T08:07:01;10.40;99.90
5222;DHT22;2630;52.036;8.514;2023-01-06T08:09:27;10.50;99.90
5222;DHT22;2630;52.036;8.514;2023-01-06T08:11:53;10.50;99.90
5222;DHT22;2630;52.036;8.514;2023-01-06T08:14:18;10.50;99.90
5222;DHT22;2630;52.036;8.514;2023-01-06T08:16:44;10.60;99.90
5222;DHT22;2630;52.036;8.514;2023-01-06T08:19:09;10.60;99.90
5222;DHT22;2630;52.036;8.514;2023-01-06T08:21:35;10.60;99.90
5222;DHT22;2630;52.036;8.514;2023-01-06T08:24:00;10.60;99.90
5222;DHT22;2630;52.036;8.514;2023-01-06T08:26:26;10.70;99.90
5222;DHT22;2630;52.036;8.514;2023-01-06T08:28:52;10.70;99.90
5222;DHT22;2630;52.036;8.514;2023-01-06T08:31:19;10.80;99.90
5222;DHT22;2630;52.036;8.514;2023-01-06T08:33:45;10.70;99.90
5222;DHT22;2630;52.036;8.514;2023-01-06T08:36:13;10.80;99.90
5222;DHT22;2630;52.036;8.514;2023-01-06T08:38:39;10.70;99.90
5222;DHT22;2630;52.036;8.514;2023-01-06T08:41:06;10.70;99.90
5222;DHT22;2630;52.036;8.514;2023-01-06T08:43:32;10.70;99.90
5222;DHT22;2630;52.036;8.514;2023-01-06T08:46:02;10.70;99.90
5222;DHT22;2630;52.036;8.514;2023-01-06T08:48:29;10.70;99.90
5222;DHT22;2630;52.036;8.514;2023-01-06T08:50:55;10.70;99.90
5222;DHT22;2630;52.036;8.514;2023-01-06T08:53:22;10.70;99.90
5222;DHT22;2630;52.036;8.514;2023-01-06T08:55:47;10.70;99.90
5222;DHT22;2630;52.036;8.514;2023-01-06T08:58:13;10.80;99.90
5222;DHT22;2630;52.036;8.514;2023-01-06T09:00:40;10.70;99.90
5222;DHT22;2630;52.036;8.514;2023-01-06T09:03:06;10.70;99.90
5222;DHT22;2630;52.036;8.514;2023-01-06T09:05:32;10.70;99.90
5222;DHT22;2630;52.036;8.514;2023-01-06T09:07:57;10.80;99.90
5222;DHT22;2630;52.036;8.514;2023-01-06T09:10:23;10.80;99.90
5222;DHT22;2630;52.036;8.514;2023-01-06T09:12:49;10.90;99.90
5222;DHT22;2630;52.036;8.514;2023-01-06T09:15:14;10.70;99.90
5222;DHT22;2630;52.036;8.514;2023-01-06T09:17:40;10.70;99.90
5222;DHT22;2630;52.036;8.514;2023-01-06T09:22:32;10.60;99.90
5222;DHT22;2630;52.036;8.514;2023-01-06T09:24:58;10.40;99.90
5222;DHT22;2630;52.036;8.514;2023-01-06T09:27:23;10.50;99.90
5222;DHT22;2630;52.036;8.514;2023-01-06T09:32:15;10.30;99.90
5222;DHT22;2630;52.036;8.514;2023-01-06T09:34:41;10.40;99.90
5222;DHT22;2630;52.036;8.514;2023-01-06T09:37:06;10.30;99.90
5222;DHT22;2630;52.036;8.514;2023-01-06T09:39:32;10.30;99.90
5222;DHT22;2630;52.036;8.514;2023-01-06T09:42:17;10.30;99.90
5222;DHT22;2630;52.036;8.514;2023-01-06T09:44:57;10.30;99.90
5222;DHT22;2630;52.036;8.514;2023-01-06T09:47:28;10.20;99.90
5222;DHT22;2630;52.036;8.514;2023-01-06T09:50:13;10.20;99.90
5222;DHT22;2630;52.036;8.514;2023-01-06T09:53:04;10.20;99.90
5222;DHT22;2630;52.036;8.514;2023-01-06T09:55:35;10.20;99.90
5222;DHT22;2630;52.036;8.514;2023-01-06T09:58:09;10.20;99.90
5222;DHT22;2630;52.036;8.514;2023-01-06T10:00:47;10.20;99.90
5222;DHT22;2630;52.036;8.514;2023-01-06T10:03:21;10.10;99.90
5222;DHT22;2630;52.036;8.514;2023-01-06T10:11:12;10.10;99.90
5222;DHT22;2630;52.036;8.514;2023-01-06T10:27:38;9.80;99.90
5222;DHT22;2630;52.036;8.514;2023-01-06T10:30:56;9.80;99.90
5222;DHT22;2630;52.036;8.514;2023-01-06T10:33:03;9.80;99.90
5222;DHT22;2630;52.036;8.514;2023-01-06T10:35:30;9.80;99.90
5222;DHT22;2630;52.036;8.514;2023-01-06T10:37:57;9.80;99.90
5222;DHT22;2630;52.036;8.514;2023-01-06T10:40:28;9.80;99.90
5222;DHT22;2630;52.036;8.514;2023-01-06T10:42:59;9.90;99.90
5222;DHT22;2630;52.036;8.514;2023-01-06T10:45:40;9.90;99.90
5222;DHT22;2630;52.036;8.514;2023-01-06T10:50:42;9.90;99.90
5222;DHT22;2630;52.036;8.514;2023-01-06T10:53:11;10.00;99.90
5222;DHT22;2630;52.036;8.514;2023-01-06T10:55:57;10.10;99.90
5222;DHT22;2630;52.036;8.514;2023-01-06T10:58:48;10.10;99.90
5222;DHT22;2630;52.036;8.514;2023-01-06T11:01:25;10.30;99.90
5222;DHT22;2630;52.036;8.514;2023-01-06T11:06:34;10.40;99.90
5222;DHT22;2630;52.036;8.514;2023-01-06T11:09:08;10.40;99.90
5222;DHT22;2630;52.036;8.514;2023-01-06T11:11:47;10.40;99.90
5222;DHT22;2630;52.036;8.514;2023-01-06T11:14:16;10.60;99.90
5222;DHT22;2630;52.036;8.514;2023-01-06T11:16:43;10.60;99.90
5222;DHT22;2630;52.036;8.514;2023-01-06T11:19:29;10.80;99.90
5222;DHT22;2630;52.036;8.514;2023-01-06T11:21:55;10.90;99.90
5222;DHT22;2630;52.036;8.514;2023-01-06T11:24:23;10.90;99.90
5222;DHT22;2630;52.036;8.514;2023-01-06T11:26:52;10.80;99.90
5222;DHT22;2630;52.036;8.514;2023-01-06T11:29:31;10.90;99.90
5222;DHT22;2630;52.036;8.514;2023-01-06T11:32:04;10.90;99.90
5222;DHT22;2630;52.036;8.514;2023-01-06T11:34:36;10.90;99.90
5222;DHT22;2630;52.036;8.514;2023-01-06T11:37:01;10.80;99.90
5222;DHT22;2630;52.036;8.514;2023-01-06T11:39:31;10.70;99.90
5222;DHT22;2630;52.036;8.514;2023-01-06T11:42:13;10.70;99.90
5222;DHT22;2630;52.036;8.514;2023-01-06T11:44:42;10.70;99.90
5222;DHT22;2630;52.036;8.514;2023-01-06T11:47:24;10.70;99.90
5222;DHT22;2630;52.036;8.514;2023-01-06T11:49:57;10.70;99.90
5222;DHT22;2630;52.036;8.514;2023-01-06T11:52:30;10.70;99.90
5222;DHT22;2630;52.036;8.514;2023-01-06T11:55:29;10.80;99.90
5222;DHT22;2630;52.036;8.514;2023-01-06T12:01:01;10.80;99.90
5222;DHT22;2630;52.036;8.514;2023-01-06T12:03:41;10.90;99.90
5222;DHT22;2630;52.036;8.514;2023-01-06T12:06:29;10.90;99.90
5222;DHT22;2630;52.036;8.514;2023-01-06T12:11:33;11.20;99.90
5222;DHT22;2630;52.036;8.514;2023-01-06T12:16:40;11.70;99.90
5222;DHT22;2630;52.036;8.514;2023-01-06T12:19:17;11.90;99.90
5222;DHT22;2630;52.036;8.514;2023-01-06T12:21:44;11.80;99.90
5222;DHT22;2630;52.036;8.514;2023-01-06T12:24:14;11.80;99.90
5222;DHT22;2630;52.036;8.514;2023-01-06T12:26:42;11.60;99.90
5222;DHT22;2630;52.036;8.514;2023-01-06T12:29:08;11.60;99.90
5222;DHT22;2630;52.036;8.514;2023-01-06T12:31:59;11.40;99.90
5222;DHT22;2630;52.036;8.514;2023-01-06T12:42:38;11.00;99.90
5222;DHT22;2630;52.036;8.514;2023-01-06T12:45:22;11.00;99.90
5222;DHT22;2630;52.036;8.514;2023-01-06T12:47:54;11.00;99.90
5222;DHT22;2630;52.036;8.514;2023-01-06T12:50:33;11.10;99.90
5222;DHT22;2630;52.036;8.514;2023-01-06T12:55:40;11.00;99.90
5222;DHT22;2630;52.036;8.514;2023-01-06T13:00:53;10.90;99.90
5222;DHT22;2630;52.036;8.514;2023-01-06T13:09:08;10.70;99.90
5222;DHT22;2630;52.036;8.514;2023-01-06T13:14:59;10.60;99.90
5222;DHT22;2630;52.036;8.514;2023-01-06T13:17:40;10.70;99.90
5222;DHT22;2630;52.036;8.514;2023-01-06T13:20:27;10.70;99.90
5222;DHT22;2630;52.036;8.514;2023-01-06T13:41:01;11.50;99.90
5222;DHT22;2630;52.036;8.514;2023-01-06T13:43:29;11.70;99.90
5222;DHT22;2630;52.036;8.514;2023-01-06T13:46:02;11.90;99.90
5222;DHT22;2630;52.036;8.514;2023-01-06T13:48:32;12.00;99.90
5222;DHT22;2630;52.036;8.514;2023-01-06T13:51:02;12.00;99.90
5222;DHT22;2630;52.036;8.514;2023-01-06T13:53:36;12.10;99.90
5222;DHT22;2630;52.036;8.514;2023-01-06T13:58:45;12.00;99.90
5222;DHT22;2630;52.036;8.514;2023-01-06T14:01:30;11.90;99.90
5222;DHT22;2630;52.036;8.514;2023-01-06T14:07:08;11.60;99.90
5222;DHT22;2630;52.036;8.514;2023-01-06T14:09:39;11.70;99.90
5222;DHT22;2630;52.036;8.514;2023-01-06T14:12:20;11.60;99.90
5222;DHT22;2630;52.036;8.514;2023-01-06T14:14:55;11.50;99.90
5222;DHT22;2630;52.036;8.514;2023-01-06T14:17:50;11.40;99.90
5222;DHT22;2630;52.036;8.514;2023-01-06T14:20:27;11.30;99.90
5222;DHT22;2630;52.036;8.514;2023-01-06T14:22:59;11.20;99.90
5222;DHT22;2630;52.036;8.514;2023-01-06T14:25:27;11.10;99.90
5222;DHT22;2630;52.036;8.514;2023-01-06T14:30:19;11.00;99.90
5222;DHT22;2630;52.036;8.514;2023-01-06T14:35:13;10.80;99.90
5222;DHT22;2630;52.036;8.514;2023-01-06T14:38:05;10.80;99.90
5222;DHT22;2630;52.036;8.514;2023-01-06T14:43:25;10.70;99.90
5222;DHT22;2630;52.036;8.514;2023-01-06T14:45:53;10.70;99.90
5222;DHT22;2630;52.036;8.514;2023-01-06T14:48:20;10.60;99.90
5222;DHT22;2630;52.036;8.514;2023-01-06T14:50:51;10.70;99.90
5222;DHT22;2630;52.036;8.514;2023-01-06T14:53:38;10.70;99.90
5222;DHT22;2630;52.036;8.514;2023-01-06T14:56:06;10.70;99.90
5222;DHT22;2630;52.036;8.514;2023-01-06T14:58:35;10.60;99.90
5222;DHT22;2630;52.036;8.514;2023-01-06T15:01:01;10.60;99.90
5222;DHT22;2630;52.036;8.514;2023-01-06T15:03:28;10.50;99.90
5222;DHT22;2630;52.036;8.514;2023-01-06T15:06:21;10.50;99.90
5222;DHT22;2630;52.036;8.514;2023-01-06T15:08:48;10.30;99.90
5222;DHT22;2630;52.036;8.514;2023-01-06T15:11:30;10.30;99.90
5222;DHT22;2630;52.036;8.514;2023-01-06T15:13:56;10.30;99.90
5222;DHT22;2630;52.036;8.514;2023-01-06T15:18:56;10.30;99.90
5222;DHT22;2630;52.036;8.514;2023-01-06T15:21:22;10.30;99.90
5222;DHT22;2630;52.036;8.514;2023-01-06T15:23:50;10.30;99.90
5222;DHT22;2630;52.036;8.514;2023-01-06T15:26:19;10.20;99.90
5222;DHT22;2630;52.036;8.514;2023-01-06T15:31:33;10.20;99.90
5222;DHT22;2630;52.036;8.514;2023-01-06T15:34:18;10.20;99.90
5222;DHT22;2630;52.036;8.514;2023-01-06T15:36:46;10.20;99.90
5222;DHT22;2630;52.036;8.514;2023-01-06T15:39:15;10.20;99.90
5222;DHT22;2630;52.036;8.514;2023-01-06T15:41:41;10.20;99.90
5222;DHT22;2630;52.036;8.514;2023-01-06T15:46:51;10.10;99.90
5222;DHT22;2630;52.036;8.514;2023-01-06T15:49:30;10.00;99.90
5222;DHT22;2630;52.036;8.514;2023-01-06T15:52:05;9.90;99.90
5222;DHT22;2630;52.036;8.514;2023-01-06T15:54:34;10.10;99.90
5222;DHT22;2630;52.036;8.514;2023-01-06T15:57:01;10.00;99.90
5222;DHT22;2630;52.036;8.514;2023-01-06T15:59:28;10.00;99.90
5222;DHT22;2630;52.036;8.514;2023-01-06T16:01:54;10.00;99.90
5222;DHT22;2630;52.036;8.514;2023-01-06T16:04:21;10.00;99.90
5222;DHT22;2630;52.036;8.514;2023-01-06T16:14:35;9.90;99.90
5222;DHT22;2630;52.036;8.514;2023-01-06T16:17:32;9.90;99.90
5222;DHT22;2630;52.036;8.514;2023-01-06T16:20:06;9.90;99.90
5222;DHT22;2630;52.036;8.514;2023-01-06T16:22:51;9.90;99.90
5222;DHT22;2630;52.036;8.514;2023-01-06T16:25:25;9.90;99.90
5222;DHT22;2630;52.036;8.514;2023-01-06T16:27:53;9.80;99.90
5222;DHT22;2630;52.036;8.514;2023-01-06T16:32:48;9.80;99.90
5222;DHT22;2630;52.036;8.514;2023-01-06T16:35:15;9.80;99.90
5222;DHT22;2630;52.036;8.514;2023-01-06T16:37:42;9.80;99.90
5222;DHT22;2630;52.036;8.514;2023-01-06T16:40:08;9.70;99.90
5222;DHT22;2630;52.036;8.514;2023-01-06T16:42:36;9.80;99.90
5222;DHT22;2630;52.036;8.514;2023-01-06T16:47:52;9.80;99.90
5222;DHT22;2630;52.036;8.514;2023-01-06T16:52:46;9.90;99.90
5222;DHT22;2630;52.036;8.514;2023-01-06T16:55:15;9.90;99.90
5222;DHT22;2630;52.036;8.514;2023-01-06T16:57:43;9.80;99.90
5222;DHT22;2630;52.036;8.514;2023-01-06T17:00:12;9.80;99.90
5222;DHT22;2630;52.036;8.514;2023-01-06T17:02:38;9.80;99.90
5222;DHT22;2630;52.036;8.514;2023-01-06T17:05:15;9.80;99.90
5222;DHT22;2630;52.036;8.514;2023-01-06T17:07:41;9.90;99.90
5222;DHT22;2630;52.036;8.514;2023-01-06T17:10:13;9.90;99.90
5222;DHT22;2630;52.036;8.514;2023-01-06T17:12:39;9.90;99.90
5222;DHT22;2630;52.036;8.514;2023-01-06T17:15:23;9.90;99.90
5222;DHT22;2630;52.036;8.514;2023-01-06T17:17:49;9.90;99.90
5222;DHT22;2630;52.036;8.514;2023-01-06T17:20:15;9.90;99.90
5222;DHT22;2630;52.036;8.514;2023-01-06T17:22:41;9.90;99.90
5222;DHT22;2630;52.036;8.514;2023-01-06T17:25:12;9.90;99.90
5222;DHT22;2630;52.036;8.514;2023-01-06T17:27:42;9.80;99.90
5222;DHT22;2630;52.036;8.514;2023-01-06T17:30:14;9.80;99.90
5222;DHT22;2630;52.036;8.514;2023-01-06T17:32:41;9.70;99.90
5222;DHT22;2630;52.036;8.514;2023-01-06T17:35:25;9.70;99.90
5222;DHT22;2630;52.036;8.514;2023-01-06T17:37:52;9.70;99.90
5222;DHT22;2630;52.036;8.514;2023-01-06T17:40:19;9.70;99.90
5222;DHT22;2630;52.036;8.514;2023-01-06T17:42:54;9.60;99.90
5222;DHT22;2630;52.036;8.514;2023-01-06T17:45:26;9.60;99.90
5222;DHT22;2630;52.036;8.514;2023-01-06T17:47:52;9.60;99.90
5222;DHT22;2630;52.036;8.514;2023-01-06T17:50:30;9.70;99.90
5222;DHT22;2630;52.036;8.514;2023-01-06T17:53:16;9.80;99.90
5222;DHT22;2630;52.036;8.514;2023-01-06T17:56:03;9.70;99.90
5222;DHT22;2630;52.036;8.514;2023-01-06T17:58:30;9.80;99.90
5222;DHT22;2630;52.036;8.514;2023-01-06T18:00:57;9.80;99.90
5222;DHT22;2630;52.036;8.514;2023-01-06T18:03:33;9.80;99.90
5222;DHT22;2630;52.036;8.514;2023-01-06T18:08:47;9.90;99.90
5222;DHT22;2630;52.036;8.514;2023-01-06T18:13:47;9.90;99.90
5222;DHT22;2630;52.036;8.514;2023-01-06T18:16:41;9.90;99.90
5222;DHT22;2630;52.036;8.514;2023-01-06T18:19:32;9.80;99.90
5222;DHT22;2630;52.036;8.514;2023-01-06T18:24:38;9.80;99.90
5222;DHT22;2630;52.036;8.514;2023-01-06T18:27:21;9.80;99.90
5222;DHT22;2630;52.036;8.514;2023-01-06T18:29:47;9.80;99.90
5222;DHT22;2630;52.036;8.514;2023-01-06T18:34:46;9.80;99.90
5222;DHT22;2630;52.036;8.514;2023-01-06T18:37:12;9.80;99.90
5222;DHT22;2630;52.036;8.514;2023-01-06T18:39:46;9.80;99.90
5222;DHT22;2630;52.036;8.514;2023-01-06T18:44:48;9.80;99.90
5222;DHT22;2630;52.036;8.514;2023-01-06T18:47:15;9.80;99.90
5222;DHT22;2630;52.036;8.514;2023-01-06T18:49:41;9.80;99.90
5222;DHT22;2630;52.036;8.514;2023-01-06T18:52:35;9.80;99.90
5222;DHT22;2630;52.036;8.514;2023-01-06T18:55:16;9.80;99.90
5222;DHT22;2630;52.036;8.514;2023-01-06T18:57:42;9.70;99.90
5222;DHT22;2630;52.036;8.514;2023-01-06T19:00:30;9.70;99.90
5222;DHT22;2630;52.036;8.514;2023-01-06T19:03:22;9.70;99.90
5222;DHT22;2630;52.036;8.514;2023-01-06T19:08:32;9.80;99.90
5222;DHT22;2630;52.036;8.514;2023-01-06T19:10:59;9.80;99.90
5222;DHT22;2630;52.036;8.514;2023-01-06T19:13:27;9.70;99.90
5222;DHT22;2630;52.036;8.514;2023-01-06T19:16:02;9.80;99.90
5222;DHT22;2630;52.036;8.514;2023-01-06T19:18:33;9.80;99.90
5222;DHT22;2630;52.036;8.514;2023-01-06T19:20:59;9.80;99.90
5222;DHT22;2630;52.036;8.514;2023-01-06T19:23:28;9.80;99.90
5222;DHT22;2630;52.036;8.514;2023-01-06T19:26:03;9.90;99.90
5222;DHT22;2630;52.036;8.514;2023-01-06T19:28:32;9.80;99.90
5222;DHT22;2630;52.036;8.514;2023-01-06T19:31:00;9.90;99.90
5222;DHT22;2630;52.036;8.514;2023-01-06T19:33:34;9.90;99.90
5222;DHT22;2630;52.036;8.514;2023-01-06T19:38:48;10.00;99.90
5222;DHT22;2630;52.036;8.514;2023-01-06T19:41:20;10.00;99.90
5222;DHT22;2630;52.036;8.514;2023-01-06T19:43:48;10.00;99.90
5222;DHT22;2630;52.036;8.514;2023-01-06T19:46:17;9.90;99.90
5222;DHT22;2630;52.036;8.514;2023-01-06T19:48:45;10.00;99.90
5222;DHT22;2630;52.036;8.514;2023-01-06T19:54:27;10.00;99.90
5222;DHT22;2630;52.036;8.514;2023-01-06T19:56:54;9.90;99.90
5222;DHT22;2630;52.036;8.514;2023-01-06T19:59:30;9.90;99.90
5222;DHT22;2630;52.036;8.514;2023-01-06T20:04:31;9.80;99.90
5222;DHT22;2630;52.036;8.514;2023-01-06T20:06:57;9.80;99.90
5222;DHT22;2630;52.036;8.514;2023-01-06T20:11:51;9.70;99.90